sensor_id;sensor_type;location;lat;lon;timestamp;P1;durP1;ratioP1;P2;durP2;ratioP2
64851;SDS011;56050;55.558;-4.644;2022-07-29T00:00:58;5.38;;;1.38;;
64851;SDS011;56050;55.558;-4.644;2022-07-29T00:03:23;3.55;;;1.75;;
64851;SDS011;56050;55.558;-4.644;2022-07-29T00:05:49;3.72;;;1.80;;
64851;SDS011;56050;55.558;-4.644;2022-07-29T00:08:14;2.92;;;0.80;;
64851;SDS011;56050;55.558;-4.644;2022-07-29T00:10:40;3.47;;;1.38;;
64851;SDS011;56050;55.558;-4.644;2022-07-29T00:13:07;3.15;;;1.92;;
64851;SDS011;56050;55.558;-4.644;2022-07-29T00:15:32;3.20;;;1.58;;
64851;SDS011;56050;55.558;-4.644;2022-07-29T00:17:58;3.75;;;1.23;;
64851;SDS011;56050;55.558;-4.644;2022-07-29T00:20:23;3.30;;;2.97;;
64851;SDS011;56050;55.558;-4.644;2022-07-29T00:22:49;4.32;;;1.65;;
64851;SDS011;56050;55.558;-4.644;2022-07-29T00:25:15;3.30;;;1.23;;
64851;SDS011;56050;55.558;-4.644;2022-07-29T00:27:41;3.25;;;1.20;;
64851;SDS011;56050;55.558;-4.644;2022-07-29T00:30:06;3.65;;;1.27;;
64851;SDS011;56050;55.558;-4.644;2022-07-29T00:32:33;4.05;;;2.05;;
64851;SDS011;56050;55.558;-4.644;2022-07-29T00:34:58;3.42;;;1.70;;
64851;SDS011;56050;55.558;-4.644;2022-07-29T00:37:42;4.25;;;1.30;;
64851;SDS011;56050;55.558;-4.644;2022-07-29T00:40:08;6.38;;;1.67;;
64851;SDS011;56050;55.558;-4.644;2022-07-29T00:45:10;3.25;;;1.55;;
64851;SDS011;56050;55.558;-4.644;2022-07-29T00:47:36;3.90;;;1.73;;
64851;SDS011;56050;55.558;-4.644;2022-07-29T00:50:03;5.25;;;1.63;;
64851;SDS011;56050;55.558;-4.644;2022-07-29T00:52:30;3.55;;;1.50;;
64851;SDS011;56050;55.558;-4.644;2022-07-29T00:54:56;3.97;;;1.55;;
64851;SDS011;56050;55.558;-4.644;2022-07-29T00:57:21;5.88;;;2.90;;
64851;SDS011;56050;55.558;-4.644;2022-07-29T00:59:47;3.72;;;1.75;;
64851;SDS011;56050;55.558;-4.644;2022-07-29T01:02:12;3.75;;;1.58;;
64851;SDS011;56050;55.558;-4.644;2022-07-29T01:04:38;5.30;;;2.03;;
64851;SDS011;56050;55.558;-4.644;2022-07-29T01:07:05;5.28;;;2.28;;
64851;SDS011;56050;55.558;-4.644;2022-07-29T01:09:32;4.10;;;1.65;;
64851;SDS011;56050;55.558;-4.644;2022-07-29T01:11:58;3.78;;;1.65;;
64851;SDS011;56050;55.558;-4.644;2022-07-29T01:14:25;5.38;;;1.85;;
64851;SDS011;56050;55.558;-4.644;2022-07-29T01:16:53;5.32;;;2.25;;
64851;SDS011;56050;55.558;-4.644;2022-07-29T01:21:59;4.22;;;1.25;;
64851;SDS011;56050;55.558;-4.644;2022-07-29T01:30:06;3.72;;;1.95;;
64851;SDS011;56050;55.558;-4.644;2022-07-29T01:32:33;3.75;;;1.95;;
64851;SDS011;56050;55.558;-4.644;2022-07-29T01:40:27;3.80;;;1.98;;
64851;SDS011;56050;55.558;-4.644;2022-07-29T01:42:59;5.28;;;1.77;;
64851;SDS011;56050;55.558;-4.644;2022-07-29T01:48:11;3.58;;;1.48;;
64851;SDS011;56050;55.558;-4.644;2022-07-29T01:50:40;4.07;;;1.50;;
64851;SDS011;56050;55.558;-4.644;2022-07-29T01:53:37;3.40;;;1.63;;
64851;SDS011;56050;55.558;-4.644;2022-07-29T01:56:09;3.75;;;1.60;;
64851;SDS011;56050;55.558;-4.644;2022-07-29T01:58:36;3.08;;;1.75;;
64851;SDS011;56050;55.558;-4.644;2022-07-29T02:01:05;4.15;;;3.55;;
64851;SDS011;56050;55.558;-4.644;2022-07-29T02:03:33;4.88;;;1.48;;
64851;SDS011;56050;55.558;-4.644;2022-07-29T02:06:01;3.15;;;1.58;;
64851;SDS011;56050;55.558;-4.644;2022-07-29T02:08:29;4.97;;;2.55;;
64851;SDS011;56050;55.558;-4.644;2022-07-29T02:10:57;3.83;;;1.80;;
64851;SDS011;56050;55.558;-4.644;2022-07-29T02:13:24;4.10;;;1.85;;
64851;SDS011;56050;55.558;-4.644;2022-07-29T02:15:52;4.88;;;1.77;;
64851;SDS011;56050;55.558;-4.644;2022-07-29T02:18:19;4.10;;;2.47;;
64851;SDS011;56050;55.558;-4.644;2022-07-29T02:20:49;3.90;;;2.15;;
64851;SDS011;56050;55.558;-4.644;2022-07-29T02:23:18;4.18;;;1.90;;
64851;SDS011;56050;55.558;-4.644;2022-07-29T02:25:49;4.00;;;2.08;;
64851;SDS011;56050;55.558;-4.644;2022-07-29T02:28:21;4.13;;;1.40;;
64851;SDS011;56050;55.558;-4.644;2022-07-29T02:30:49;4.68;;;2.03;;
64851;SDS011;56050;55.558;-4.644;2022-07-29T02:33:17;4.18;;;1.33;;
64851;SDS011;56050;55.558;-4.644;2022-07-29T02:35:45;2.97;;;1.60;;
64851;SDS011;56050;55.558;-4.644;2022-07-29T02:38:13;4.32;;;1.10;;
64851;SDS011;56050;55.558;-4.644;2022-07-29T02:41:03;4.43;;;1.70;;
64851;SDS011;56050;55.558;-4.644;2022-07-29T02:43:33;3.17;;;1.77;;
64851;SDS011;56050;55.558;-4.644;2022-07-29T02:46:00;3.45;;;1.45;;
64851;SDS011;56050;55.558;-4.644;2022-07-29T02:48:34;3.55;;;0.93;;
64851;SDS011;56050;55.558;-4.644;2022-07-29T02:51:08;1.85;;;0.88;;
64851;SDS011;56050;55.558;-4.644;2022-07-29T02:53:43;3.00;;;1.20;;
64851;SDS011;56050;55.558;-4.644;2022-07-29T02:56:16;3.35;;;2.65;;
64851;SDS011;56050;55.558;-4.644;2022-07-29T02:58:47;2.00;;;1.13;;
64851;SDS011;56050;55.558;-4.644;2022-07-29T03:01:27;5.72;;;1.25;;
64851;SDS011;56050;55.558;-4.644;2022-07-29T03:03:56;4.00;;;2.38;;
64851;SDS011;56050;55.558;-4.644;2022-07-29T03:06:28;2.83;;;0.68;;
64851;SDS011;56050;55.558;-4.644;2022-07-29T03:08:55;2.53;;;0.80;;
64851;SDS011;56050;55.558;-4.644;2022-07-29T03:11:24;3.10;;;1.27;;
64851;SDS011;56050;55.558;-4.644;2022-07-29T03:13:50;2.92;;;1.30;;
64851;SDS011;56050;55.558;-4.644;2022-07-29T03:16:16;2.97;;;1.52;;
64851;SDS011;56050;55.558;-4.644;2022-07-29T03:18:44;3.83;;;0.88;;
64851;SDS011;56050;55.558;-4.644;2022-07-29T03:21:10;2.25;;;0.88;;
64851;SDS011;56050;55.558;-4.644;2022-07-29T03:23:36;3.50;;;0.75;;
64851;SDS011;56050;55.558;-4.644;2022-07-29T03:29:02;2.95;;;1.67;;
64851;SDS011;56050;55.558;-4.644;2022-07-29T03:31:28;2.83;;;0.95;;
64851;SDS011;56050;55.558;-4.644;2022-07-29T03:33:53;2.00;;;0.90;;
64851;SDS011;56050;55.558;-4.644;2022-07-29T03:36:19;2.80;;;1.00;;
64851;SDS011;56050;55.558;-4.644;2022-07-29T03:38:44;4.03;;;0.70;;
64851;SDS011;56050;55.558;-4.644;2022-07-29T03:41:12;4.85;;;1.02;;
64851;SDS011;56050;55.558;-4.644;2022-07-29T03:43:40;1.80;;;0.93;;
64851;SDS011;56050;55.558;-4.644;2022-07-29T03:46:07;7.07;;;1.30;;
64851;SDS011;56050;55.558;-4.644;2022-07-29T03:48:35;3.03;;;1.02;;
64851;SDS011;56050;55.558;-4.644;2022-07-29T03:51:05;2.70;;;0.93;;
64851;SDS011;56050;55.558;-4.644;2022-07-29T03:53:31;2.60;;;1.05;;
64851;SDS011;56050;55.558;-4.644;2022-07-29T03:55:58;4.25;;;1.02;;
64851;SDS011;56050;55.558;-4.644;2022-07-29T03:58:26;2.25;;;0.98;;
64851;SDS011;56050;55.558;-4.644;2022-07-29T04:00:53;2.95;;;1.38;;
64851;SDS011;56050;55.558;-4.644;2022-07-29T04:03:20;3.25;;;1.27;;
64851;SDS011;56050;55.558;-4.644;2022-07-29T04:05:57;4.32;;;1.50;;
64851;SDS011;56050;55.558;-4.644;2022-07-29T04:08:33;2.67;;;1.48;;
64851;SDS011;56050;55.558;-4.644;2022-07-29T04:11:00;2.80;;;1.10;;
64851;SDS011;56050;55.558;-4.644;2022-07-29T04:13:26;4.68;;;1.42;;
64851;SDS011;56050;55.558;-4.644;2022-07-29T04:15:52;2.13;;;0.80;;
64851;SDS011;56050;55.558;-4.644;2022-07-29T04:18:18;2.75;;;1.27;;
64851;SDS011;56050;55.558;-4.644;2022-07-29T04:20:43;2.03;;;0.90;;
64851;SDS011;56050;55.558;-4.644;2022-07-29T04:23:09;2.45;;;1.38;;
64851;SDS011;56050;55.558;-4.644;2022-07-29T04:25:38;3.38;;;1.20;;
64851;SDS011;56050;55.558;-4.644;2022-07-29T04:28:05;2.38;;;1.88;;
64851;SDS011;56050;55.558;-4.644;2022-07-29T04:30:31;3.05;;;1.67;;
64851;SDS011;56050;55.558;-4.644;2022-07-29T04:32:58;2.50;;;0.85;;
64851;SDS011;56050;55.558;-4.644;2022-07-29T04:35:26;5.10;;;1.67;;
64851;SDS011;56050;55.558;-4.644;2022-07-29T04:37:52;4.43;;;1.75;;
64851;SDS011;56050;55.558;-4.644;2022-07-29T04:40:17;3.63;;;1.45;;
64851;SDS011;56050;55.558;-4.644;2022-07-29T04:42:43;2.60;;;1.20;;
64851;SDS011;56050;55.558;-4.644;2022-07-29T04:45:09;2.95;;;1.00;;
64851;SDS011;56050;55.558;-4.644;2022-07-29T04:47:34;2.08;;;1.20;;
64851;SDS011;56050;55.558;-4.644;2022-07-29T04:50:00;3.70;;;1.33;;
64851;SDS011;56050;55.558;-4.644;2022-07-29T04:52:26;3.40;;;1.02;;
64851;SDS011;56050;55.558;-4.644;2022-07-29T04:54:51;3.55;;;1.52;;
64851;SDS011;56050;55.558;-4.644;2022-07-29T04:57:17;4.63;;;1.42;;
64851;SDS011;56050;55.558;-4.644;2022-07-29T04:59:42;2.92;;;1.77;;
64851;SDS011;56050;55.558;-4.644;2022-07-29T05:02:08;3.47;;;1.42;;
64851;SDS011;56050;55.558;-4.644;2022-07-29T05:04:35;6.00;;;1.67;;
64851;SDS011;56050;55.558;-4.644;2022-07-29T05:07:00;3.75;;;1.55;;
64851;SDS011;56050;55.558;-4.644;2022-07-29T05:09:26;3.58;;;1.30;;
64851;SDS011;56050;55.558;-4.644;2022-07-29T05:11:51;3.47;;;1.20;;
64851;SDS011;56050;55.558;-4.644;2022-07-29T05:14:17;4.45;;;1.35;;
64851;SDS011;56050;55.558;-4.644;2022-07-29T05:16:42;3.25;;;1.50;;
64851;SDS011;56050;55.558;-4.644;2022-07-29T05:19:08;2.75;;;1.17;;
64851;SDS011;56050;55.558;-4.644;2022-07-29T05:21:34;4.22;;;2.05;;
64851;SDS011;56050;55.558;-4.644;2022-07-29T05:23:59;3.85;;;1.48;;
64851;SDS011;56050;55.558;-4.644;2022-07-29T05:26:25;3.80;;;1.52;;
64851;SDS011;56050;55.558;-4.644;2022-07-29T05:28:51;4.85;;;1.38;;
64851;SDS011;56050;55.558;-4.644;2022-07-29T05:31:17;3.35;;;1.67;;
64851;SDS011;56050;55.558;-4.644;2022-07-29T05:33:42;4.82;;;1.67;;
64851;SDS011;56050;55.558;-4.644;2022-07-29T05:36:08;5.70;;;2.05;;
64851;SDS011;56050;55.558;-4.644;2022-07-29T05:38:34;4.55;;;1.80;;
64851;SDS011;56050;55.558;-4.644;2022-07-29T05:41:00;4.45;;;2.53;;
64851;SDS011;56050;55.558;-4.644;2022-07-29T05:43:26;4.35;;;1.77;;
64851;SDS011;56050;55.558;-4.644;2022-07-29T05:45:52;3.13;;;2.03;;
64851;SDS011;56050;55.558;-4.644;2022-07-29T05:48:18;4.90;;;1.70;;
64851;SDS011;56050;55.558;-4.644;2022-07-29T05:50:43;4.10;;;1.70;;
64851;SDS011;56050;55.558;-4.644;2022-07-29T05:53:09;5.40;;;2.05;;
64851;SDS011;56050;55.558;-4.644;2022-07-29T05:55:34;3.10;;;1.75;;
64851;SDS011;56050;55.558;-4.644;2022-07-29T05:58:00;5.45;;;2.25;;
64851;SDS011;56050;55.558;-4.644;2022-07-29T06:00:25;5.00;;;1.63;;
64851;SDS011;56050;55.558;-4.644;2022-07-29T06:02:51;3.75;;;1.45;;
64851;SDS011;56050;55.558;-4.644;2022-07-29T06:05:16;4.18;;;1.52;;
64851;SDS011;56050;55.558;-4.644;2022-07-29T06:07:42;6.18;;;2.70;;
64851;SDS011;56050;55.558;-4.644;2022-07-29T06:10:08;4.22;;;2.47;;
64851;SDS011;56050;55.558;-4.644;2022-07-29T06:12:34;4.93;;;2.17;;
64851;SDS011;56050;55.558;-4.644;2022-07-29T06:14:59;4.60;;;1.77;;
64851;SDS011;56050;55.558;-4.644;2022-07-29T06:17:25;4.00;;;1.63;;
64851;SDS011;56050;55.558;-4.644;2022-07-29T06:19:50;3.38;;;1.65;;
64851;SDS011;56050;55.558;-4.644;2022-07-29T06:22:18;4.25;;;1.77;;
64851;SDS011;56050;55.558;-4.644;2022-07-29T06:24:43;5.88;;;1.95;;
64851;SDS011;56050;55.558;-4.644;2022-07-29T06:27:11;3.60;;;1.83;;
64851;SDS011;56050;55.558;-4.644;2022-07-29T06:29:37;5.10;;;2.17;;
64851;SDS011;56050;55.558;-4.644;2022-07-29T06:32:03;3.88;;;1.83;;
64851;SDS011;56050;55.558;-4.644;2022-07-29T06:34:29;4.82;;;2.00;;
64851;SDS011;56050;55.558;-4.644;2022-07-29T06:36:54;3.00;;;1.27;;
64851;SDS011;56050;55.558;-4.644;2022-07-29T06:39:20;4.80;;;1.55;;
64851;SDS011;56050;55.558;-4.644;2022-07-29T06:41:49;5.10;;;2.17;;
64851;SDS011;56050;55.558;-4.644;2022-07-29T06:44:15;4.90;;;1.80;;
64851;SDS011;56050;55.558;-4.644;2022-07-29T06:46:42;6.40;;;2.50;;
64851;SDS011;56050;55.558;-4.644;2022-07-29T06:49:08;5.38;;;2.17;;
64851;SDS011;56050;55.558;-4.644;2022-07-29T06:51:34;4.38;;;2.13;;
64851;SDS011;56050;55.558;-4.644;2022-07-29T06:54:00;4.90;;;3.38;;
64851;SDS011;56050;55.558;-4.644;2022-07-29T06:56:26;3.47;;;1.90;;
64851;SDS011;56050;55.558;-4.644;2022-07-29T06:58:52;4.43;;;1.65;;
64851;SDS011;56050;55.558;-4.644;2022-07-29T07:01:17;4.93;;;2.70;;
64851;SDS011;56050;55.558;-4.644;2022-07-29T07:03:43;4.78;;;1.85;;
64851;SDS011;56050;55.558;-4.644;2022-07-29T07:06:08;5.97;;;3.38;;
64851;SDS011;56050;55.558;-4.644;2022-07-29T07:08:34;6.65;;;2.22;;
64851;SDS011;56050;55.558;-4.644;2022-07-29T07:10:59;4.97;;;3.58;;
64851;SDS011;56050;55.558;-4.644;2022-07-29T07:13:25;5.55;;;3.25;;
64851;SDS011;56050;55.558;-4.644;2022-07-29T07:15:51;4.97;;;3.47;;
64851;SDS011;56050;55.558;-4.644;2022-07-29T07:18:17;5.18;;;2.45;;
64851;SDS011;56050;55.558;-4.644;2022-07-29T07:20:43;4.60;;;1.80;;
64851;SDS011;56050;55.558;-4.644;2022-07-29T07:23:09;4.10;;;2.00;;
64851;SDS011;56050;55.558;-4.644;2022-07-29T07:25:35;4.43;;;1.92;;
64851;SDS011;56050;55.558;-4.644;2022-07-29T07:28:01;3.60;;;1.90;;
64851;SDS011;56050;55.558;-4.644;2022-07-29T07:30:26;5.00;;;2.38;;
64851;SDS011;56050;55.558;-4.644;2022-07-29T07:32:52;4.00;;;2.30;;
64851;SDS011;56050;55.558;-4.644;2022-07-29T07:35:19;3.80;;;1.83;;
64851;SDS011;56050;55.558;-4.644;2022-07-29T07:37:44;5.38;;;2.63;;
64851;SDS011;56050;55.558;-4.644;2022-07-29T07:40:11;5.38;;;2.30;;
64851;SDS011;56050;55.558;-4.644;2022-07-29T07:42:38;4.68;;;2.45;;
64851;SDS011;56050;55.558;-4.644;2022-07-29T07:45:04;4.47;;;2.03;;
64851;SDS011;56050;55.558;-4.644;2022-07-29T07:47:31;7.22;;;2.33;;
64851;SDS011;56050;55.558;-4.644;2022-07-29T07:49:57;5.13;;;2.30;;
64851;SDS011;56050;55.558;-4.644;2022-07-29T07:52:22;5.93;;;2.42;;
64851;SDS011;56050;55.558;-4.644;2022-07-29T07:54:48;7.00;;;2.92;;
64851;SDS011;56050;55.558;-4.644;2022-07-29T07:57:14;6.88;;;2.25;;
64851;SDS011;56050;55.558;-4.644;2022-07-29T07:59:40;5.55;;;2.28;;
64851;SDS011;56050;55.558;-4.644;2022-07-29T08:02:06;5.47;;;2.55;;
64851;SDS011;56050;55.558;-4.644;2022-07-29T08:04:32;4.57;;;2.58;;
64851;SDS011;56050;55.558;-4.644;2022-07-29T08:06:58;4.40;;;1.55;;
64851;SDS011;56050;55.558;-4.644;2022-07-29T08:09:25;6.07;;;2.20;;
64851;SDS011;56050;55.558;-4.644;2022-07-29T08:11:51;4.45;;;2.17;;
64851;SDS011;56050;55.558;-4.644;2022-07-29T08:14:18;5.22;;;2.65;;
64851;SDS011;56050;55.558;-4.644;2022-07-29T08:16:44;5.18;;;2.30;;
64851;SDS011;56050;55.558;-4.644;2022-07-29T08:19:09;5.63;;;1.95;;
64851;SDS011;56050;55.558;-4.644;2022-07-29T08:21:35;6.50;;;2.25;;
64851;SDS011;56050;55.558;-4.644;2022-07-29T08:24:01;5.15;;;1.92;;
64851;SDS011;56050;55.558;-4.644;2022-07-29T08:26:45;3.00;;;1.30;;
64851;SDS011;56050;55.558;-4.644;2022-07-29T08:29:11;4.75;;;2.05;;
64851;SDS011;56050;55.558;-4.644;2022-07-29T08:31:37;5.28;;;2.08;;
64851;SDS011;56050;55.558;-4.644;2022-07-29T08:34:03;4.10;;;1.38;;
64851;SDS011;56050;55.558;-4.644;2022-07-29T08:36:30;3.53;;;2.00;;
64851;SDS011;56050;55.558;-4.644;2022-07-29T08:38:56;3.85;;;1.83;;
64851;SDS011;56050;55.558;-4.644;2022-07-29T08:41:22;4.32;;;2.00;;
64851;SDS011;56050;55.558;-4.644;2022-07-29T08:43:48;3.58;;;1.45;;
64851;SDS011;56050;55.558;-4.644;2022-07-29T08:46:14;4.38;;;1.52;;
64851;SDS011;56050;55.558;-4.644;2022-07-29T08:48:41;4.53;;;1.58;;
64851;SDS011;56050;55.558;-4.644;2022-07-29T08:51:07;5.35;;;2.40;;
64851;SDS011;56050;55.558;-4.644;2022-07-29T08:53:37;4.25;;;2.33;;
64851;SDS011;56050;55.558;-4.644;2022-07-29T08:56:06;4.38;;;2.97;;
64851;SDS011;56050;55.558;-4.644;2022-07-29T08:58:32;4.55;;;1.67;;
64851;SDS011;56050;55.558;-4.644;2022-07-29T09:00:59;7.80;;;2.15;;
64851;SDS011;56050;55.558;-4.644;2022-07-29T09:03:29;7.00;;;4.05;;
64851;SDS011;56050;55.558;-4.644;2022-07-29T09:05:56;4.68;;;2.03;;
64851;SDS011;56050;55.558;-4.644;2022-07-29T09:08:26;6.72;;;2.95;;
64851;SDS011;56050;55.558;-4.644;2022-07-29T09:10:53;9.00;;;3.47;;
64851;SDS011;56050;55.558;-4.644;2022-07-29T09:13:21;6.45;;;3.35;;
64851;SDS011;56050;55.558;-4.644;2022-07-29T09:15:47;7.00;;;3.20;;
64851;SDS011;56050;55.558;-4.644;2022-07-29T09:18:32;9.20;;;3.88;;
64851;SDS011;56050;55.558;-4.644;2022-07-29T09:20:59;6.85;;;3.08;;
64851;SDS011;56050;55.558;-4.644;2022-07-29T09:24:06;8.75;;;3.47;;
64851;SDS011;56050;55.558;-4.644;2022-07-29T09:26:54;7.97;;;3.58;;
64851;SDS011;56050;55.558;-4.644;2022-07-29T09:29:21;7.40;;;4.07;;
64851;SDS011;56050;55.558;-4.644;2022-07-29T09:31:48;9.93;;;4.47;;
64851;SDS011;56050;55.558;-4.644;2022-07-29T09:34:20;11.15;;;4.47;;
64851;SDS011;56050;55.558;-4.644;2022-07-29T09:36:56;9.20;;;4.32;;
64851;SDS011;56050;55.558;-4.644;2022-07-29T09:42:01;9.68;;;5.22;;
64851;SDS011;56050;55.558;-4.644;2022-07-29T09:44:48;9.98;;;4.10;;
64851;SDS011;56050;55.558;-4.644;2022-07-29T09:47:17;8.82;;;4.55;;
64851;SDS011;56050;55.558;-4.644;2022-07-29T09:52:17;11.73;;;5.60;;
64851;SDS011;56050;55.558;-4.644;2022-07-29T09:54:43;12.27;;;5.72;;
64851;SDS011;56050;55.558;-4.644;2022-07-29T09:57:21;11.93;;;5.43;;
64851;SDS011;56050;55.558;-4.644;2022-07-29T09:59:58;9.98;;;4.85;;
64851;SDS011;56050;55.558;-4.644;2022-07-29T10:02:27;10.13;;;5.45;;
64851;SDS011;56050;55.558;-4.644;2022-07-29T10:04:59;11.93;;;6.05;;
64851;SDS011;56050;55.558;-4.644;2022-07-29T10:07:26;10.60;;;5.75;;
64851;SDS011;56050;55.558;-4.644;2022-07-29T10:10:07;10.43;;;4.72;;
64851;SDS011;56050;55.558;-4.644;2022-07-29T10:12:33;11.07;;;5.07;;
64851;SDS011;56050;55.558;-4.644;2022-07-29T10:14:58;11.40;;;5.40;;
64851;SDS011;56050;55.558;-4.644;2022-07-29T10:17:27;10.23;;;5.97;;
64851;SDS011;56050;55.558;-4.644;2022-07-29T10:19:53;10.38;;;5.10;;
64851;SDS011;56050;55.558;-4.644;2022-07-29T10:22:20;10.82;;;4.68;;
64851;SDS011;56050;55.558;-4.644;2022-07-29T10:24:47;10.20;;;4.82;;
64851;SDS011;56050;55.558;-4.644;2022-07-29T10:27:13;11.13;;;5.60;;
64851;SDS011;56050;55.558;-4.644;2022-07-29T10:29:39;12.07;;;6.18;;
64851;SDS011;56050;55.558;-4.644;2022-07-29T10:37:33;9.80;;;4.43;;
64851;SDS011;56050;55.558;-4.644;2022-07-29T10:43:28;9.20;;;5.00;;
64851;SDS011;56050;55.558;-4.644;2022-07-29T10:45:58;8.55;;;4.22;;
64851;SDS011;56050;55.558;-4.644;2022-07-29T10:48:25;10.57;;;4.55;;
64851;SDS011;56050;55.558;-4.644;2022-07-29T10:51:02;10.15;;;4.38;;
64851;SDS011;56050;55.558;-4.644;2022-07-29T10:56:28;10.57;;;4.03;;
64851;SDS011;56050;55.558;-4.644;2022-07-29T11:01:48;9.20;;;4.03;;
64851;SDS011;56050;55.558;-4.644;2022-07-29T11:05:01;6.95;;;3.10;;
64851;SDS011;56050;55.558;-4.644;2022-07-29T11:07:24;8.32;;;3.88;;
64851;SDS011;56050;55.558;-4.644;2022-07-29T11:15:11;8.13;;;4.30;;
64851;SDS011;56050;55.558;-4.644;2022-07-29T11:20:42;7.97;;;4.03;;
64851;SDS011;56050;55.558;-4.644;2022-07-29T11:23:19;9.18;;;3.88;;
64851;SDS011;56050;55.558;-4.644;2022-07-29T11:26:12;9.73;;;4.72;;
64851;SDS011;56050;55.558;-4.644;2022-07-29T11:31:33;8.57;;;3.90;;
64851;SDS011;56050;55.558;-4.644;2022-07-29T11:34:16;10.52;;;4.25;;
64851;SDS011;56050;55.558;-4.644;2022-07-29T11:40:20;14.07;;;4.65;;
64851;SDS011;56050;55.558;-4.644;2022-07-29T11:45:03;11.10;;;5.00;;
64851;SDS011;56050;55.558;-4.644;2022-07-29T11:47:31;11.25;;;4.97;;
64851;SDS011;56050;55.558;-4.644;2022-07-29T11:49:59;8.93;;;3.53;;
64851;SDS011;56050;55.558;-4.644;2022-07-29T11:52:35;10.70;;;4.82;;
64851;SDS011;56050;55.558;-4.644;2022-07-29T11:55:22;9.75;;;5.10;;
64851;SDS011;56050;55.558;-4.644;2022-07-29T11:57:58;8.25;;;3.85;;
64851;SDS011;56050;55.558;-4.644;2022-07-29T12:02:56;8.77;;;4.50;;
64851;SDS011;56050;55.558;-4.644;2022-07-29T12:05:33;10.68;;;4.95;;
64851;SDS011;56050;55.558;-4.644;2022-07-29T12:08:10;8.43;;;3.85;;
64851;SDS011;56050;55.558;-4.644;2022-07-29T12:10:37;8.73;;;3.97;;
64851;SDS011;56050;55.558;-4.644;2022-07-29T12:13:03;7.43;;;3.70;;
64851;SDS011;56050;55.558;-4.644;2022-07-29T12:15:29;8.07;;;3.38;;
64851;SDS011;56050;55.558;-4.644;2022-07-29T12:17:55;9.15;;;3.80;;
64851;SDS011;56050;55.558;-4.644;2022-07-29T12:20:28;6.72;;;4.40;;
64851;SDS011;56050;55.558;-4.644;2022-07-29T12:22:55;5.95;;;3.58;;
64851;SDS011;56050;55.558;-4.644;2022-07-29T12:25:21;6.63;;;3.45;;
64851;SDS011;56050;55.558;-4.644;2022-07-29T12:27:57;7.00;;;3.97;;
64851;SDS011;56050;55.558;-4.644;2022-07-29T12:30:23;5.80;;;3.25;;
64851;SDS011;56050;55.558;-4.644;2022-07-29T12:33:00;5.22;;;2.30;;
64851;SDS011;56050;55.558;-4.644;2022-07-29T12:35:25;3.75;;;2.08;;
64851;SDS011;56050;55.558;-4.644;2022-07-29T12:37:51;4.22;;;2.35;;
64851;SDS011;56050;55.558;-4.644;2022-07-29T12:40:17;5.03;;;2.28;;
64851;SDS011;56050;55.558;-4.644;2022-07-29T12:45:32;7.65;;;2.55;;
64851;SDS011;56050;55.558;-4.644;2022-07-29T12:47:57;5.43;;;2.58;;
64851;SDS011;56050;55.558;-4.644;2022-07-29T12:50:23;5.80;;;2.65;;
64851;SDS011;56050;55.558;-4.644;2022-07-29T12:52:50;4.80;;;2.83;;
64851;SDS011;56050;55.558;-4.644;2022-07-29T12:55:15;9.70;;;3.55;;
64851;SDS011;56050;55.558;-4.644;2022-07-29T12:57:45;5.30;;;3.25;;
64851;SDS011;56050;55.558;-4.644;2022-07-29T13:00:13;8.20;;;3.95;;
64851;SDS011;56050;55.558;-4.644;2022-07-29T13:02:40;5.30;;;2.92;;
64851;SDS011;56050;55.558;-4.644;2022-07-29T13:05:08;6.70;;;3.38;;
64851;SDS011;56050;55.558;-4.644;2022-07-29T13:07:35;6.70;;;4.45;;
64851;SDS011;56050;55.558;-4.644;2022-07-29T13:10:17;5.13;;;2.53;;
64851;SDS011;56050;55.558;-4.644;2022-07-29T13:13:03;5.63;;;3.05;;
64851;SDS011;56050;55.558;-4.644;2022-07-29T13:15:30;6.65;;;3.10;;
64851;SDS011;56050;55.558;-4.644;2022-07-29T13:17:57;6.95;;;3.50;;
64851;SDS011;56050;55.558;-4.644;2022-07-29T13:20:27;9.75;;;3.63;;
64851;SDS011;56050;55.558;-4.644;2022-07-29T13:22:57;4.90;;;2.78;;
64851;SDS011;56050;55.558;-4.644;2022-07-29T13:25:30;5.25;;;2.75;;
64851;SDS011;56050;55.558;-4.644;2022-07-29T13:27:57;7.40;;;4.15;;
64851;SDS011;56050;55.558;-4.644;2022-07-29T13:30:24;6.55;;;3.03;;
64851;SDS011;56050;55.558;-4.644;2022-07-29T13:32:51;5.82;;;3.38;;
64851;SDS011;56050;55.558;-4.644;2022-07-29T13:35:17;6.55;;;3.03;;
64851;SDS011;56050;55.558;-4.644;2022-07-29T13:37:44;6.25;;;2.85;;
64851;SDS011;56050;55.558;-4.644;2022-07-29T13:40:10;6.10;;;3.47;;
64851;SDS011;56050;55.558;-4.644;2022-07-29T13:42:37;7.07;;;3.30;;
64851;SDS011;56050;55.558;-4.644;2022-07-29T13:45:03;5.97;;;3.10;;
64851;SDS011;56050;55.558;-4.644;2022-07-29T13:47:30;7.45;;;3.63;;
64851;SDS011;56050;55.558;-4.644;2022-07-29T13:49:55;5.57;;;3.45;;
64851;SDS011;56050;55.558;-4.644;2022-07-29T13:52:21;7.65;;;4.00;;
64851;SDS011;56050;55.558;-4.644;2022-07-29T13:54:47;5.18;;;2.53;;
64851;SDS011;56050;55.558;-4.644;2022-07-29T13:57:12;7.45;;;3.13;;
64851;SDS011;56050;55.558;-4.644;2022-07-29T13:59:39;5.45;;;2.55;;
64851;SDS011;56050;55.558;-4.644;2022-07-29T14:02:06;5.53;;;2.38;;
64851;SDS011;56050;55.558;-4.644;2022-07-29T14:04:32;6.65;;;2.85;;
64851;SDS011;56050;55.558;-4.644;2022-07-29T14:06:59;6.35;;;2.80;;
64851;SDS011;56050;55.558;-4.644;2022-07-29T14:09:25;5.05;;;2.20;;
64851;SDS011;56050;55.558;-4.644;2022-07-29T14:11:51;4.63;;;2.40;;
64851;SDS011;56050;55.558;-4.644;2022-07-29T14:14:18;4.97;;;2.13;;
64851;SDS011;56050;55.558;-4.644;2022-07-29T14:16:44;5.60;;;2.17;;
64851;SDS011;56050;55.558;-4.644;2022-07-29T14:19:10;5.95;;;2.33;;
64851;SDS011;56050;55.558;-4.644;2022-07-29T14:21:36;5.10;;;2.30;;
64851;SDS011;56050;55.558;-4.644;2022-07-29T14:24:02;3.33;;;2.03;;
64851;SDS011;56050;55.558;-4.644;2022-07-29T14:26:28;4.85;;;3.90;;
64851;SDS011;56050;55.558;-4.644;2022-07-29T14:28:53;4.10;;;2.30;;
64851;SDS011;56050;55.558;-4.644;2022-07-29T14:31:19;6.10;;;2.15;;
64851;SDS011;56050;55.558;-4.644;2022-07-29T14:33:44;5.70;;;2.72;;
64851;SDS011;56050;55.558;-4.644;2022-07-29T14:36:10;5.40;;;2.58;;
64851;SDS011;56050;55.558;-4.644;2022-07-29T14:38:36;5.70;;;2.53;;
64851;SDS011;56050;55.558;-4.644;2022-07-29T14:41:02;5.43;;;2.22;;
64851;SDS011;56050;55.558;-4.644;2022-07-29T14:43:28;6.95;;;2.30;;
64851;SDS011;56050;55.558;-4.644;2022-07-29T14:45:53;4.43;;;2.25;;
64851;SDS011;56050;55.558;-4.644;2022-07-29T14:48:19;5.40;;;2.72;;
64851;SDS011;56050;55.558;-4.644;2022-07-29T14:50:44;7.40;;;3.70;;
64851;SDS011;56050;55.558;-4.644;2022-07-29T14:53:10;4.25;;;2.15;;
64851;SDS011;56050;55.558;-4.644;2022-07-29T14:55:37;5.78;;;2.50;;
64851;SDS011;56050;55.558;-4.644;2022-07-29T14:58:02;7.68;;;2.22;;
64851;SDS011;56050;55.558;-4.644;2022-07-29T15:00:28;7.43;;;3.08;;
64851;SDS011;56050;55.558;-4.644;2022-07-29T15:02:57;6.93;;;1.38;;
64851;SDS011;56050;55.558;-4.644;2022-07-29T15:05:23;6.50;;;1.90;;
64851;SDS011;56050;55.558;-4.644;2022-07-29T15:07:49;3.28;;;1.63;;
64851;SDS011;56050;55.558;-4.644;2022-07-29T15:10:14;4.13;;;1.83;;
64851;SDS011;56050;55.558;-4.644;2022-07-29T15:12:39;4.75;;;2.08;;
64851;SDS011;56050;55.558;-4.644;2022-07-29T15:15:05;4.60;;;2.72;;
64851;SDS011;56050;55.558;-4.644;2022-07-29T15:17:32;4.70;;;1.42;;
64851;SDS011;56050;55.558;-4.644;2022-07-29T15:19:58;5.05;;;1.90;;
64851;SDS011;56050;55.558;-4.644;2022-07-29T15:22:23;5.60;;;1.60;;
64851;SDS011;56050;55.558;-4.644;2022-07-29T15:24:49;3.67;;;1.30;;
64851;SDS011;56050;55.558;-4.644;2022-07-29T15:27:14;7.38;;;2.70;;
64851;SDS011;56050;55.558;-4.644;2022-07-29T15:29:43;4.18;;;1.27;;
64851;SDS011;56050;55.558;-4.644;2022-07-29T15:32:09;6.65;;;1.65;;
64851;SDS011;56050;55.558;-4.644;2022-07-29T15:34:35;4.38;;;1.17;;
64851;SDS011;56050;55.558;-4.644;2022-07-29T15:37:02;3.33;;;1.17;;
64851;SDS011;56050;55.558;-4.644;2022-07-29T15:39:27;3.38;;;1.02;;
64851;SDS011;56050;55.558;-4.644;2022-07-29T15:41:53;3.55;;;0.95;;